createdAt,value
2022-11-29T00:04:43.856Z,2.70
2022-11-29T00:09:46.023Z,2.69
2022-11-29T00:14:48.095Z,2.65
2022-11-29T00:19:50.139Z,2.59
2022-11-29T00:24:52.258Z,2.62
2022-11-29T00:29:54.323Z,2.60
2022-11-29T00:34:59.371Z,2.65
2022-11-29T00:40:02.126Z,2.66
2022-11-29T00:45:04.653Z,2.74
2022-11-29T00:50:07.619Z,2.68
2022-11-29T00:55:09.866Z,2.56
2022-11-29T01:00:12.539Z,2.61
2022-11-29T01:05:14.697Z,2.68
2022-11-29T01:10:17.096Z,2.55
2022-11-29T01:15:19.178Z,2.60
2022-11-29T01:20:21.509Z,2.59
2022-11-29T01:25:23.563Z,2.62
2022-11-29T01:30:25.857Z,2.58
2022-11-29T01:35:27.926Z,2.67
2022-11-29T01:40:29.966Z,2.51
2022-11-29T01:45:38.193Z,2.49
2022-11-29T01:50:41.390Z,2.51
2022-11-29T01:55:50.756Z,2.45
2022-11-29T02:00:53.071Z,2.41
2022-11-29T02:05:55.470Z,2.43
2022-11-29T02:11:17.800Z,2.48
2022-11-29T02:16:38.518Z,2.44
2022-11-29T02:21:53.411Z,2.38
2022-11-29T02:27:12.268Z,2.41
2022-11-29T02:32:52.211Z,2.28
2022-11-29T02:38:04.778Z,2.37
2022-11-29T02:43:31.289Z,2.30
2022-11-29T02:48:39.282Z,2.35
2022-11-29T02:53:47.499Z,2.34
2022-11-29T02:59:20.087Z,2.26
2022-11-29T03:04:45.715Z,2.16
2022-11-29T03:10:00.008Z,2.14
2022-11-29T03:15:18.081Z,2.13
2022-11-29T03:20:29.178Z,2.15
2022-11-29T03:26:00.821Z,2.08
2022-11-29T03:31:15.667Z,2.00
2022-11-29T03:36:41.176Z,2.11
2022-11-29T03:42:03.550Z,2.20
2022-11-29T03:47:14.647Z,2.30
2022-11-29T03:52:24.127Z,2.24
2022-11-29T03:57:39.585Z,2.28
2022-11-29T04:03:01.005Z,2.25
2022-11-29T04:08:27.633Z,2.32
2022-11-29T04:13:48.259Z,2.26
2022-11-29T04:19:40.253Z,2.24
2022-11-29T04:25:04.197Z,2.20
2022-11-29T04:30:12.199Z,2.22
2022-11-29T04:35:30.643Z,2.23
2022-11-29T04:40:44.800Z,2.15
2022-11-29T04:46:00.458Z,2.14
2022-11-29T04:51:45.412Z,1.94
2022-11-29T04:56:52.300Z,2.02
2022-11-29T05:02:09.566Z,2.06
2022-11-29T05:07:22.954Z,2.00
2022-11-29T05:12:43.051Z,2.01
2022-11-29T05:17:51.042Z,1.84
2022-11-29T05:23:11.915Z,1.93
2022-11-29T05:28:21.097Z,1.91
2022-11-29T05:33:40.351Z,1.90
2022-11-29T05:38:42.337Z,1.91
2022-11-29T05:44:03.713Z,1.92
2022-11-29T05:49:27.598Z,1.89
2022-11-29T05:54:58.944Z,1.70
2022-11-29T06:00:04.129Z,1.77
2022-11-29T06:05:17.209Z,1.76
2022-11-29T06:10:23.330Z,1.63
2022-11-29T06:15:48.654Z,1.65
2022-11-29T06:21:09.294Z,1.58
2022-11-29T06:26:34.335Z,1.71
2022-11-29T06:31:43.981Z,1.81
2022-11-29T06:37:02.317Z,1.91
2022-11-29T06:42:04.527Z,1.91
2022-11-29T06:47:15.416Z,1.90
2022-11-29T06:52:28.227Z,1.94
2022-11-29T06:57:45.414Z,1.92
2022-11-29T07:03:16.116Z,2.06
2022-11-29T07:08:24.124Z,2.16
2022-11-29T07:13:26.505Z,2.01
2022-11-29T07:18:36.648Z,2.13
2022-11-29T07:23:45.856Z,2.31
2022-11-29T07:29:06.992Z,2.30
2022-11-29T07:34:30.189Z,2.44
2022-11-29T07:39:54.130Z,2.44
2022-11-29T07:45:19.407Z,2.50
2022-11-29T07:50:21.978Z,2.59
2022-11-29T07:55:26.133Z,2.51
2022-11-29T08:00:28.309Z,2.41
2022-11-29T08:05:30.453Z,2.40
2022-11-29T08:10:32.644Z,2.50
2022-11-29T08:15:35.054Z,2.69
2022-11-29T08:20:37.178Z,2.59
2022-11-29T08:25:39.826Z,2.80
2022-11-29T08:30:41.846Z,2.71
2022-11-29T08:35:43.963Z,2.75
2022-11-29T08:40:46.327Z,2.71
2022-11-29T08:45:52.705Z,2.74
2022-11-29T08:50:56.570Z,2.71
2022-11-29T08:55:59.803Z,2.96
2022-11-29T09:01:01.918Z,2.97
2022-11-29T09:06:12.175Z,3.05
2022-11-29T09:11:17.508Z,3.16
2022-11-29T09:16:22.735Z,3.19
2022-11-29T09:21:26.854Z,3.40
2022-11-29T09:26:31.945Z,3.47
2022-11-29T09:31:35.077Z,3.34
2022-11-29T09:36:37.202Z,3.12
2022-11-29T09:41:46.993Z,3.11
2022-11-29T09:47:27.990Z,3.03
2022-11-29T09:52:57.993Z,3.02
2022-11-29T09:58:03.785Z,3.24
2022-11-29T10:03:20.791Z,3.35
2022-11-29T10:08:41.959Z,4.01
2022-11-29T10:13:50.501Z,4.41
2022-11-29T10:19:07.864Z,4.61
2022-11-29T10:24:20.267Z,4.24
2022-11-29T10:29:23.336Z,4.38
2022-11-29T10:34:26.389Z,4.18
2022-11-29T10:39:31.187Z,4.41
2022-11-29T10:44:33.779Z,4.54
2022-11-29T10:49:37.313Z,4.39
2022-11-29T10:54:44.474Z,4.41
2022-11-29T11:00:07.564Z,4.13
2022-11-29T11:05:18.842Z,3.89
2022-11-29T11:10:29.367Z,3.64
2022-11-29T11:15:33.216Z,3.53
2022-11-29T11:20:39.787Z,3.41
2022-11-29T11:25:41.953Z,3.51
2022-11-29T11:31:11.729Z,3.82
2022-11-29T11:36:23.496Z,3.86
2022-11-29T11:41:56.714Z,4.02
2022-11-29T11:47:00.081Z,4.19
2022-11-29T11:52:05.123Z,4.21
2022-11-29T11:57:17.296Z,4.16
2022-11-29T12:02:40.409Z,4.23
2022-11-29T12:08:08.720Z,3.90
2022-11-29T12:13:24.188Z,3.68
2022-11-29T12:18:44.329Z,3.39
2022-11-29T12:24:23.694Z,3.41
2022-11-29T12:29:30.473Z,3.61
2022-11-29T12:34:56.144Z,3.58
2022-11-29T12:40:04.361Z,3.59
2022-11-29T12:45:35.880Z,3.57
2022-11-29T12:50:59.790Z,3.78
2022-11-29T12:56:23.440Z,4.08
2022-11-29T13:01:41.650Z,3.97
2022-11-29T13:06:55.561Z,4.08
2022-11-29T13:12:01.916Z,4.13
2022-11-29T13:17:15.010Z,4.28
2022-11-29T13:22:38.405Z,4.31
2022-11-29T13:27:47.374Z,4.10
2022-11-29T13:33:05.809Z,4.26
2022-11-29T13:38:10.880Z,4.41
2022-11-29T13:43:24.449Z,4.50
2022-11-29T13:48:34.799Z,4.28
2022-11-29T13:53:48.445Z,4.22
2022-11-29T13:58:54.673Z,4.09
2022-11-29T14:04:07.561Z,3.92
2022-11-29T14:09:27.760Z,3.71
2022-11-29T14:14:55.448Z,3.76
2022-11-29T14:20:23.517Z,3.73
2022-11-29T14:25:50.611Z,3.52
2022-11-29T14:30:50.530Z,3.59
2022-11-29T14:36:17.714Z,3.62
2022-11-29T14:41:33.084Z,3.50
2022-11-29T14:46:35.577Z,3.48
2022-11-29T14:51:37.718Z,3.40
2022-11-29T14:56:45.298Z,3.31
2022-11-29T15:01:49.120Z,3.34
2022-11-29T15:06:55.707Z,3.36
2022-11-29T15:12:17.570Z,3.55
2022-11-29T15:17:26.316Z,3.63
2022-11-29T15:22:45.284Z,3.72
2022-11-29T15:27:58.669Z,3.66
2022-11-29T15:33:04.544Z,3.56
2022-11-29T15:38:06.676Z,3.64
2022-11-29T15:43:30.335Z,3.56
2022-11-29T15:48:33.710Z,3.57
2022-11-29T15:53:41.296Z,3.58
2022-11-29T15:58:45.070Z,3.64
2022-11-29T16:03:50.544Z,3.64
2022-11-29T16:08:54.419Z,3.62
2022-11-29T16:14:11.826Z,3.64
2022-11-29T16:19:32.558Z,3.56
2022-11-29T16:24:36.235Z,3.66
2022-11-29T16:29:45.089Z,3.74
2022-11-29T16:34:47.584Z,3.72
2022-11-29T16:39:53.795Z,3.54
2022-11-29T16:44:59.231Z,3.61
2022-11-29T16:50:20.573Z,3.53
2022-11-29T16:55:22.644Z,3.56
2022-11-29T17:00:32.877Z,3.42
2022-11-29T17:05:35.695Z,3.46
2022-11-29T17:10:40.022Z,3.44
2022-11-29T17:15:42.125Z,3.52
2022-11-29T17:20:44.240Z,3.43
2022-11-29T17:25:56.531Z,3.54
2022-11-29T17:30:58.849Z,3.60
2022-11-29T17:36:08.825Z,3.65
2022-11-29T17:41:16.959Z,3.64
2022-11-29T17:46:22.791Z,3.59
2022-11-29T17:56:47.522Z,3.79
2022-11-29T18:01:49.873Z,3.76
2022-11-29T18:06:52.014Z,3.85
2022-11-29T18:11:54.080Z,3.70
2022-11-29T18:16:56.480Z,3.72
2022-11-29T18:21:58.721Z,3.77
2022-11-29T18:27:00.783Z,3.83
2022-11-29T18:32:02.827Z,3.75
2022-11-29T18:37:04.945Z,3.82
2022-11-29T18:42:07.090Z,3.83
2022-11-29T18:47:09.120Z,3.75
2022-11-29T18:52:11.168Z,3.80
2022-11-29T18:57:13.235Z,3.76
2022-11-29T19:02:19.917Z,3.73
2022-11-29T19:07:22.056Z,3.73
2022-11-29T19:12:24.159Z,3.65
2022-11-29T19:17:26.260Z,3.54
2022-11-29T19:22:29.679Z,3.57
2022-11-29T19:27:32.067Z,3.65
2022-11-29T19:32:34.479Z,3.63
2022-11-29T19:37:36.532Z,3.57
2022-11-29T19:42:38.653Z,3.48
2022-11-29T19:47:40.734Z,3.56
2022-11-29T19:52:42.894Z,3.20
2022-11-29T19:57:44.942Z,3.35
2022-11-29T20:02:47.124Z,3.30
2022-11-29T20:07:49.315Z,3.15
2022-11-29T20:12:51.465Z,3.15
2022-11-29T20:17:53.681Z,3.15
2022-11-29T20:22:55.808Z,3.19
2022-11-29T20:27:58.319Z,3.21
2022-11-29T20:33:00.606Z,3.13
2022-11-29T20:38:16.371Z,3.27
2022-11-29T20:43:52.417Z,3.33
2022-11-29T20:48:55.250Z,3.12
2022-11-29T20:53:58.882Z,3.29
2022-11-29T20:59:01.167Z,3.31
2022-11-29T21:04:03.300Z,3.24
2022-11-29T21:09:06.181Z,3.33
2022-11-29T21:14:09.139Z,3.22
2022-11-29T21:19:18.893Z,3.32
2022-11-29T21:24:46.773Z,3.30
2022-11-29T21:29:49.475Z,3.30
2022-11-29T21:34:51.758Z,3.30
2022-11-29T21:39:55.546Z,3.36
2022-11-29T21:44:57.702Z,3.36
2022-11-29T21:49:59.853Z,3.39
2022-11-29T21:55:02.266Z,3.45
2022-11-29T22:00:05.669Z,3.47
2022-11-29T22:05:09.633Z,3.42
2022-11-29T22:10:13.482Z,3.36
2022-11-29T22:15:19.023Z,3.19
2022-11-29T22:20:23.698Z,3.41
2022-11-29T22:25:25.794Z,3.14
2022-11-29T22:30:27.970Z,3.39
2022-11-29T22:35:30.053Z,3.29
2022-11-29T22:40:32.582Z,3.44
2022-11-29T22:45:34.648Z,3.41
2022-11-29T22:50:36.662Z,3.49
2022-11-29T22:55:38.706Z,3.53
2022-11-29T23:00:44.016Z,3.54
2022-11-29T23:05:46.204Z,3.68
2022-11-29T23:10:56.962Z,3.74
2022-11-29T23:15:59.082Z,3.73
2022-11-29T23:21:08.166Z,3.77
2022-11-29T23:26:18.674Z,3.77
2022-11-29T23:31:21.727Z,3.91
2022-11-29T23:36:23.917Z,3.79
2022-11-29T23:41:26.104Z,3.89
2022-11-29T23:46:28.151Z,3.87
2022-11-29T23:51:30.224Z,3.85
2022-11-29T23:56:35.483Z,3.83
